Time,TemperatureF,DewpointF,PressureIn,WindDirection,WindDirectionDegrees,WindSpeedMPH,WindSpeedGustMPH,Humidity,HourlyPrecipIn,Conditions,Clouds,dailyrainin,SoftwareType,DateUTC
2013-02-22 00:02:00,19.0,18.0,30.34,North,0,0.0,-999.0,92,-99.99,,,-99.99,,2013-02-22 05:02:00,
2013-02-22 00:12:00,21.0,18.0,30.33,North,350,3.0,-999.0,85,-99.99,,,-99.99,,2013-02-22 05:12:00,
2013-02-22 00:22:00,21.0,18.0,30.34,North,350,3.0,-999.0,85,-99.99,,,-99.99,,2013-02-22 05:22:00,
2013-02-22 00:32:00,21.0,18.0,30.34,North,360,3.0,-999.0,85,-99.99,,,-99.99,,2013-02-22 05:32:00,
2013-02-22 00:42:00,21.0,18.0,30.33,North,360,5.0,-999.0,85,-99.99,,,-99.99,,2013-02-22 05:42:00,
2013-02-22 00:52:00,21.0,18.0,30.33,NNE,30,5.0,-999.0,85,-99.99,,,-99.99,,2013-02-22 05:52:00,
2013-02-22 01:01:00,21.0,18.0,30.33,NNE,30,5.0,-999.0,85,-99.99,,,-99.99,,2013-02-22 06:01:00,
2013-02-22 01:12:00,21.0,18.0,30.34,North,10,5.0,-999.0,85,-99.99,,,-99.99,,2013-02-22 06:12:00,
2013-02-22 01:22:00,21.0,18.0,30.33,NNE,20,7.0,-999.0,85,-99.99,,,-99.99,,2013-02-22 06:22:00,
2013-02-22 01:32:00,21.0,18.0,30.32,North,360,5.0,-999.0,85,-99.99,,,-99.99,,2013-02-22 06:32:00,
2013-02-22 01:42:00,19.0,18.0,30.32,North,350,5.0,-999.0,92,-99.99,,,-99.99,,2013-02-22 06:42:00,
2013-02-22 01:51:00,19.0,18.0,30.30,North,360,3.0,-999.0,92,-99.99,,,-99.99,,2013-02-22 06:51:00,
2013-02-22 02:01:00,19.0,18.0,30.30,North,360,3.0,-999.0,92,-99.99,,,-99.99,,2013-02-22 07:01:00,
2013-02-22 02:11:00,19.0,18.0,30.31,North,0,0.0,-999.0,92,-99.99,,,-99.99,,2013-02-22 07:11:00,
2013-02-22 02:21:00,19.0,18.0,30.31,WNW,300,3.0,-999.0,92,-99.99,,,-99.99,,2013-02-22 07:21:00,
2013-02-22 02:31:00,21.0,18.0,30.32,WNW,300,3.0,-999.0,85,-99.99,,,-99.99,,2013-02-22 07:31:00,
2013-02-22 02:42:00,21.0,18.0,30.32,NNW,340,3.0,-999.0,85,-99.99,,,-99.99,,2013-02-22 07:42:00,
2013-02-22 02:51:00,21.0,18.0,30.32,North,360,3.0,-999.0,85,-99.99,,,-99.99,,2013-02-22 07:51:00,
2013-02-22 03:01:00,21.0,18.0,30.32,North,360,3.0,-999.0,85,-99.99,,,-99.99,,2013-02-22 08:01:00,
2013-02-22 03:11:00,21.0,18.0,30.32,North,0,0.0,-999.0,85,-99.99,,,-99.99,,2013-02-22 08:11:00,
2013-02-22 03:21:00,21.0,18.0,30.33,North,0,0.0,-999.0,85,-99.99,,,-99.99,,2013-02-22 08:21:00,
2013-02-22 03:32:00,21.0,18.0,30.34,North,0,0.0,-999.0,85,-99.99,,,-99.99,,2013-02-22 08:32:00,
2013-02-22 03:42:00,21.0,18.0,30.34,North,0,0.0,-999.0,85,-99.99,,,-99.99,,2013-02-22 08:42:00,
2013-02-22 03:52:00,21.0,18.0,30.33,North,0,0.0,-999.0,85,-99.99,,,-99.99,,2013-02-22 08:52:00,
2013-02-22 04:03:00,21.0,18.0,30.33,North,0,0.0,-999.0,85,-99.99,,,-99.99,,2013-02-22 09:03:00,
2013-02-22 04:11:00,21.0,18.0,30.33,North,0,0.0,-999.0,85,-99.99,,,-99.99,,2013-02-22 09:11:00,
2013-02-22 04:21:00,21.0,18.0,30.34,North,0,0.0,-999.0,85,-99.99,,,-99.99,,2013-02-22 09:21:00,
2013-02-22 04:32:00,21.0,18.0,30.35,North,0,0.0,-999.0,85,-99.99,,,-99.99,,2013-02-22 09:32:00,
2013-02-22 04:42:00,21.0,18.0,30.35,North,0,0.0,-999.0,85,-99.99,,,-99.99,,2013-02-22 09:42:00,
2013-02-22 04:51:00,21.0,18.0,30.34,North,0,0.0,-999.0,85,-99.99,,,-99.99,,2013-02-22 09:51:00,
2013-02-22 05:01:00,21.0,18.0,30.34,North,0,0.0,-999.0,85,-99.99,,,-99.99,,2013-02-22 10:01:00,
2013-02-22 05:11:00,21.0,18.0,30.33,NNE,30,3.0,-999.0,85,-99.99,,,-99.99,,2013-02-22 10:11:00,
2013-02-22 05:21:00,19.0,18.0,30.32,East,100,3.0,-999.0,92,-99.99,,,-99.99,,2013-02-22 10:21:00,
2013-02-22 05:32:00,19.0,18.0,30.32,East,80,3.0,-999.0,92,-99.99,,,-99.99,,2013-02-22 10:32:00,
2013-02-22 05:42:00,19.0,18.0,30.32,East,80,3.0,-999.0,92,-99.99,,,-99.99,,2013-02-22 10:42:00,
2013-02-22 05:52:00,19.0,18.0,30.32,North,0,0.0,-999.0,92,-99.99,,,-99.99,,2013-02-22 10:52:00,
2013-02-22 06:01:00,19.0,18.0,30.32,North,0,0.0,-999.0,92,-99.99,,,-99.99,,2013-02-22 11:01:00,
2013-02-22 06:11:00,19.0,18.0,30.32,ESE,110,3.0,-999.0,92,-99.99,,,-99.99,,2013-02-22 11:11:00,
2013-02-22 06:21:00,19.0,18.0,30.33,North,0,0.0,-999.0,92,-99.99,,,-99.99,,2013-02-22 11:21:00,
2013-02-22 06:32:00,19.0,18.0,30.34,North,0,0.0,-999.0,92,-99.99,,,-99.99,,2013-02-22 11:32:00,
2013-02-22 06:42:00,19.0,18.0,30.34,North,0,0.0,-999.0,92,-99.99,,,-99.99,,2013-02-22 11:42:00,
2013-02-22 06:52:00,19.0,18.0,30.33,North,0,0.0,-999.0,92,-99.99,,,-99.99,,2013-02-22 11:52:00,
2013-02-22 07:02:00,19.0,18.0,30.33,North,0,0.0,-999.0,92,-99.99,,,-99.99,,2013-02-22 12:02:00,
2013-02-22 07:11:00,19.0,18.0,30.35,South,170,3.0,-999.0,92,-99.99,,,-99.99,,2013-02-22 12:11:00,
2013-02-22 07:22:00,19.0,18.0,30.36,North,0,0.0,-999.0,92,-99.99,,,-99.99,,2013-02-22 12:22:00,
2013-02-22 07:32:00,19.0,18.0,30.36,North,0,0.0,-999.0,92,-99.99,,,-99.99,,2013-02-22 12:32:00,
2013-02-22 07:42:00,19.0,18.0,30.36,North,0,0.0,-999.0,92,-99.99,,,-99.99,,2013-02-22 12:42:00,
2013-02-22 07:52:00,19.0,18.0,30.36,SE,140,3.0,-999.0,92,-99.99,,,-99.99,,2013-02-22 12:52:00,
2013-02-22 08:02:00,19.0,18.0,30.36,SE,140,3.0,-999.0,92,-99.99,,,-99.99,,2013-02-22 13:02:00,
2013-02-22 08:11:00,19.0,18.0,30.35,North,0,0.0,-999.0,92,-99.99,,,-99.99,,2013-02-22 13:11:00,
2013-02-22 08:22:00,19.0,18.0,30.34,North,0,0.0,-999.0,92,-99.99,,,-99.99,,2013-02-22 13:22:00,
2013-02-22 08:32:00,19.0,16.0,30.35,North,0,0.0,-999.0,85,-99.99,,,-99.99,,2013-02-22 13:32:00,
2013-02-22 08:42:00,19.0,18.0,30.34,North,0,0.0,-999.0,92,-99.99,,,-99.99,,2013-02-22 13:42:00,
2013-02-22 08:52:00,19.0,16.0,30.34,North,0,0.0,-999.0,85,-99.99,,,-99.99,,2013-02-22 13:52:00,
2013-02-22 09:01:00,19.0,16.0,30.34,North,0,0.0,-999.0,85,-99.99,,,-99.99,,2013-02-22 14:01:00,
2013-02-22 09:11:00,19.0,16.0,30.33,North,0,0.0,-999.0,85,-99.99,,,-99.99,,2013-02-22 14:11:00,
2013-02-22 09:21:00,21.0,18.0,30.32,North,0,0.0,-999.0,85,-99.99,,,-99.99,,2013-02-22 14:21:00,
2013-02-22 09:32:00,21.0,18.0,30.31,North,0,0.0,-999.0,85,-99.99,,,-99.99,,2013-02-22 14:32:00,
2013-02-22 09:42:00,21.0,18.0,30.31,North,0,0.0,-999.0,85,-99.99,,,-99.99,,2013-02-22 14:42:00,
2013-02-22 09:52:00,21.0,18.0,30.31,North,0,0.0,-999.0,85,-99.99,,,-99.99,,2013-02-22 14:52:00,
2013-02-22 10:02:00,21.0,18.0,30.31,North,0,0.0,-999.0,85,-99.99,,,-99.99,,2013-02-22 15:02:00,
2013-02-22 10:11:00,23.0,18.0,30.31,North,0,0.0,-999.0,79,-99.99,,,-99.99,,2013-02-22 15:11:00,
2013-02-22 10:22:00,25.0,19.0,30.31,SSE,160,6.0,-999.0,79,-99.99,,,-99.99,,2013-02-22 15:22:00,
2013-02-22 10:32:00,25.0,19.0,30.32,South,170,6.0,-999.0,79,-99.99,,,-99.99,,2013-02-22 15:32:00,
2013-02-22 10:42:00,25.0,19.0,30.33,SSE,160,5.0,-999.0,79,-99.99,,,-99.99,,2013-02-22 15:42:00,
2013-02-22 10:52:00,25.0,19.0,30.32,SSE,160,5.0,-999.0,79,-99.99,,,-99.99,,2013-02-22 15:52:00,
2013-02-22 11:02:00,25.0,19.0,30.32,SSE,160,5.0,-999.0,79,-99.99,,,-99.99,,2013-02-22 16:02:00,
2013-02-22 11:12:00,25.0,19.0,30.31,SSE,160,5.0,-999.0,79,-99.99,,,-99.99,,2013-02-22 16:12:00,
2013-02-22 11:22:00,27.0,19.0,30.30,SSE,160,5.0,-999.0,73,-99.99,,,-99.99,,2013-02-22 16:22:00,
2013-02-22 11:32:00,28.0,19.0,30.30,SSE,150,10.0,-999.0,68,-99.99,,,-99.99,,2013-02-22 16:32:00,
2013-02-22 11:42:00,28.0,19.0,30.30,SE,140,7.0,-999.0,68,-99.99,,,-99.99,,2013-02-22 16:42:00,
2013-02-22 11:52:00,28.0,19.0,30.29,SE,130,8.0,-999.0,68,-99.99,,,-99.99,,2013-02-22 16:52:00,
2013-02-22 12:01:00,28.0,19.0,30.29,SE,130,8.0,-999.0,68,-99.99,,,-99.99,,2013-02-22 17:01:00,
2013-02-22 12:11:00,30.0,21.0,30.26,SE,140,9.0,-999.0,68,-99.99,,,-99.99,,2013-02-22 17:11:00,
2013-02-22 12:21:00,30.0,21.0,30.25,SE,140,7.0,-999.0,68,-99.99,,,-99.99,,2013-02-22 17:21:00,
2013-02-22 12:32:00,32.0,21.0,30.24,South,180,9.0,-999.0,63,-99.99,,,-99.99,,2013-02-22 17:32:00,
2013-02-22 12:42:00,32.0,19.0,30.24,South,180,10.0,-999.0,59,-99.99,,,-99.99,,2013-02-22 17:42:00,
2013-02-22 12:52:00,32.0,19.0,30.23,South,180,10.0,-999.0,59,-99.99,,,-99.99,,2013-02-22 17:52:00,
2013-02-22 13:02:00,32.0,19.0,30.23,South,180,10.0,-999.0,59,-99.99,,,-99.99,,2013-02-22 18:02:00,
2013-02-22 13:12:00,34.0,21.0,30.22,SSE,160,12.0,17.0,59,-99.99,,,-99.99,,2013-02-22 18:12:00,
2013-02-22 13:22:00,34.0,21.0,30.21,SSE,160,8.0,-999.0,59,-99.99,,,-99.99,,2013-02-22 18:22:00,
2013-02-22 13:32:00,34.0,21.0,30.20,South,170,12.0,18.0,59,-99.99,,,-99.99,,2013-02-22 18:32:00,
2013-02-22 13:42:00,34.0,21.0,30.20,South,170,8.0,-999.0,59,-99.99,,,-99.99,,2013-02-22 18:42:00,
2013-02-22 13:51:00,34.0,21.0,30.19,South,170,8.0,-999.0,59,-99.99,,,-99.99,,2013-02-22 18:51:00,
2013-02-22 14:01:00,34.0,21.0,30.19,South,170,8.0,-999.0,59,-99.99,,,-99.99,,2013-02-22 19:01:00,
2013-02-22 14:11:00,34.0,21.0,30.19,SSE,160,10.0,-999.0,59,-99.99,,,-99.99,,2013-02-22 19:11:00,
2013-02-22 14:21:00,34.0,21.0,30.19,SSE,160,13.0,16.0,59,-99.99,,,-99.99,,2013-02-22 19:21:00,
2013-02-22 14:31:00,34.0,21.0,30.19,SSE,160,12.0,17.0,59,-99.99,,,-99.99,,2013-02-22 19:31:00,
2013-02-22 14:41:00,36.0,21.0,30.19,SSE,160,9.0,17.0,55,-99.99,,,-99.99,,2013-02-22 19:41:00,
2013-02-22 14:52:00,36.0,21.0,30.18,SSE,160,9.0,-999.0,55,-99.99,,,-99.99,,2013-02-22 19:52:00,
2013-02-22 15:01:00,36.0,21.0,30.18,SSE,160,9.0,-999.0,55,-99.99,,,-99.99,,2013-02-22 20:01:00,
2013-02-22 15:11:00,36.0,21.0,30.17,SSE,150,10.0,-999.0,55,-99.99,,,-99.99,,2013-02-22 20:11:00,
2013-02-22 15:21:00,36.0,21.0,30.17,South,170,10.0,-999.0,55,-99.99,,,-99.99,,2013-02-22 20:21:00,
2013-02-22 15:32:00,36.0,21.0,30.18,SSE,160,12.0,-999.0,55,-99.99,,,-99.99,,2013-02-22 20:32:00,
2013-02-22 15:41:00,36.0,21.0,30.18,South,170,9.0,-999.0,55,-99.99,,,-99.99,,2013-02-22 20:41:00,
2013-02-22 15:52:00,36.0,21.0,30.18,South,170,12.0,-999.0,55,-99.99,,,-99.99,,2013-02-22 20:52:00,
2013-02-22 16:02:00,36.0,21.0,30.18,South,170,12.0,-999.0,55,-99.99,,,-99.99,,2013-02-22 21:02:00,
2013-02-22 16:11:00,36.0,21.0,30.17,South,170,8.0,-999.0,55,-99.99,,,-99.99,,2013-02-22 21:11:00,
2013-02-22 16:21:00,37.0,21.0,30.18,South,180,12.0,-999.0,51,-99.99,,,-99.99,,2013-02-22 21:21:00,
2013-02-22 16:32:00,36.0,21.0,30.17,SSE,160,8.0,-999.0,55,-99.99,,,-99.99,,2013-02-22 21:32:00,
2013-02-22 16:42:00,36.0,21.0,30.16,SSE,160,7.0,-999.0,55,-99.99,,,-99.99,,2013-02-22 21:42:00,
2013-02-22 16:52:00,36.0,21.0,30.17,South,180,8.0,-999.0,55,-99.99,,,-99.99,,2013-02-22 21:52:00,
2013-02-22 17:01:00,36.0,21.0,30.17,South,180,8.0,-999.0,55,-99.99,,,-99.99,,2013-02-22 22:01:00,
2013-02-22 17:11:00,36.0,23.0,30.16,South,180,7.0,-999.0,59,-99.99,,,-99.99,,2013-02-22 22:11:00,
2013-02-22 17:21:00,36.0,23.0,30.16,South,180,10.0,-999.0,59,-99.99,,,-99.99,,2013-02-22 22:21:00,
2013-02-22 17:32:00,36.0,25.0,30.17,South,170,9.0,-999.0,64,-99.99,,,-99.99,,2013-02-22 22:32:00,
2013-02-22 17:42:00,36.0,25.0,30.17,SSE,160,9.0,17.0,64,-99.99,,,-99.99,,2013-02-22 22:42:00,
2013-02-22 17:51:00,34.0,25.0,30.17,SSE,160,14.0,-999.0,69,-99.99,,,-99.99,,2013-02-22 22:51:00,
2013-02-22 18:01:00,34.0,25.0,30.17,SSE,160,14.0,-999.0,69,-99.99,,,-99.99,,2013-02-22 23:01:00,
2013-02-22 18:11:00,34.0,25.0,30.16,SSE,160,12.0,-999.0,69,-99.99,,,-99.99,,2013-02-22 23:11:00,
2013-02-22 18:21:00,34.0,25.0,30.16,SSE,150,12.0,-999.0,69,-99.99,,,-99.99,,2013-02-22 23:21:00,
2013-02-22 18:32:00,34.0,25.0,30.15,South,170,14.0,17.0,69,-99.99,,,-99.99,,2013-02-22 23:32:00,
2013-02-22 18:41:00,34.0,25.0,30.15,SSE,160,13.0,-999.0,69,-99.99,,,-99.99,,2013-02-22 23:41:00,
2013-02-22 18:52:00,34.0,25.0,30.14,South,170,14.0,20.0,69,-99.99,,,-99.99,,2013-02-22 23:52:00,
2013-02-22 19:02:00,34.0,25.0,30.14,South,170,14.0,20.0,69,-99.99,,,-99.99,,2013-02-23 00:02:00,
2013-02-22 19:11:00,34.0,27.0,30.14,SSE,160,10.0,-999.0,74,-99.99,,,-99.99,,2013-02-23 00:11:00,
2013-02-22 19:21:00,34.0,25.0,30.14,SSE,160,12.0,-999.0,69,-99.99,,,-99.99,,2013-02-23 00:21:00,
2013-02-22 19:32:00,34.0,25.0,30.14,South,170,10.0,-999.0,69,-99.99,,,-99.99,,2013-02-23 00:32:00,
2013-02-22 19:42:00,34.0,25.0,30.14,South,180,15.0,-999.0,69,-99.99,,,-99.99,,2013-02-23 00:42:00,
2013-02-22 19:51:00,34.0,25.0,30.13,South,170,15.0,23.0,69,-99.99,,,-99.99,,2013-02-23 00:51:00,
2013-02-22 20:01:00,34.0,25.0,30.13,South,170,15.0,23.0,69,-99.99,,,-99.99,,2013-02-23 01:01:00,
2013-02-22 20:11:00,34.0,25.0,30.13,South,180,13.0,17.0,69,-99.99,,,-99.99,,2013-02-23 01:11:00,
2013-02-22 20:21:00,34.0,25.0,30.13,South,170,15.0,21.0,69,-99.99,,,-99.99,,2013-02-23 01:21:00,
2013-02-22 20:32:00,34.0,25.0,30.13,South,170,10.0,17.0,69,-99.99,,,-99.99,,2013-02-23 01:32:00,
2013-02-22 20:42:00,34.0,25.0,30.13,South,170,14.0,22.0,69,-99.99,,,-99.99,,2013-02-23 01:42:00,
2013-02-22 20:51:00,34.0,23.0,30.13,South,180,18.0,24.0,64,-99.99,,,-99.99,,2013-02-23 01:51:00,
2013-02-22 21:01:00,34.0,23.0,30.13,South,180,18.0,24.0,64,-99.99,,,-99.99,,2013-02-23 02:01:00,
2013-02-22 21:11:00,34.0,23.0,30.13,South,170,15.0,25.0,64,-99.99,,,-99.99,,2013-02-23 02:11:00,
2013-02-22 21:21:00,34.0,23.0,30.13,South,170,15.0,27.0,64,-99.99,,,-99.99,,2013-02-23 02:21:00,
2013-02-22 21:32:00,34.0,23.0,30.13,South,170,17.0,27.0,64,-99.99,,,-99.99,,2013-02-23 02:32:00,
2013-02-22 21:42:00,34.0,23.0,30.13,South,170,15.0,27.0,64,-99.99,,,-99.99,,2013-02-23 02:42:00,
2013-02-22 21:52:00,34.0,25.0,30.12,South,180,14.0,21.0,69,-99.99,,,-99.99,,2013-02-23 02:52:00,
2013-02-22 22:02:00,34.0,25.0,30.12,South,180,14.0,21.0,69,-99.99,,,-99.99,,2013-02-23 03:02:00,
2013-02-22 22:11:00,34.0,23.0,30.12,South,170,17.0,23.0,64,-99.99,,,-99.99,,2013-02-23 03:11:00,
2013-02-22 22:21:00,34.0,23.0,30.12,South,170,16.0,27.0,64,-99.99,,,-99.99,,2013-02-23 03:21:00,
2013-02-22 22:32:00,34.0,23.0,30.12,South,170,16.0,22.0,64,-99.99,,,-99.99,,2013-02-23 03:32:00,
2013-02-22 22:42:00,34.0,23.0,30.12,South,180,14.0,21.0,64,-99.99,,,-99.99,,2013-02-23 03:42:00,
2013-02-22 22:51:00,34.0,23.0,30.12,South,180,12.0,20.0,64,-99.99,,,-99.99,,2013-02-23 03:51:00,
2013-02-22 23:01:00,34.0,23.0,30.12,South,180,12.0,20.0,64,-99.99,,,-99.99,,2013-02-23 04:01:00,
2013-02-22 23:11:00,34.0,23.0,30.12,South,180,14.0,21.0,64,-99.99,,,-99.99,,2013-02-23 04:11:00,
2013-02-22 23:21:00,34.0,23.0,30.12,South,170,14.0,24.0,64,-99.99,,,-99.99,,2013-02-23 04:21:00,
2013-02-22 23:32:00,34.0,23.0,30.12,South,180,13.0,20.0,64,-99.99,,,-99.99,,2013-02-23 04:32:00,
2013-02-22 23:41:00,34.0,23.0,30.12,South,180,14.0,21.0,64,-99.99,,,-99.99,,2013-02-23 04:41:00,
2013-02-22 23:51:00,34.0,23.0,30.11,South,170,14.0,23.0,64,-99.99,,,-99.99,,2013-02-23 04:51:00,